sensor_id;sensor_type;location;lat;lon;timestamp;P1;durP1;ratioP1;P2;durP2;ratioP2
44248;SDS011;29923;48.718;9.272;2023-01-04T00:01:44;12.63;;;7.30;;
44248;SDS011;29923;48.718;9.272;2023-01-04T00:04:10;11.55;;;7.57;;
44248;SDS011;29923;48.718;9.272;2023-01-04T00:06:35;10.85;;;7.03;;
44248;SDS011;29923;48.718;9.272;2023-01-04T00:09:01;12.95;;;8.15;;
44248;SDS011;29923;48.718;9.272;2023-01-04T00:11:26;11.05;;;7.30;;
44248;SDS011;29923;48.718;9.272;2023-01-04T00:13:52;12.10;;;7.53;;
44248;SDS011;29923;48.718;9.272;2023-01-04T00:16:21;16.05;;;8.98;;
44248;SDS011;29923;48.718;9.272;2023-01-04T00:18:48;11.90;;;6.95;;
44248;SDS011;29923;48.718;9.272;2023-01-04T00:21:19;15.15;;;7.95;;
44248;SDS011;29923;48.718;9.272;2023-01-04T00:23:49;9.52;;;6.15;;
44248;SDS011;29923;48.718;9.272;2023-01-04T00:26:21;11.70;;;6.82;;
44248;SDS011;29923;48.718;9.272;2023-01-04T00:28:51;20.52;;;7.25;;
44248;SDS011;29923;48.718;9.272;2023-01-04T00:31:20;13.25;;;6.93;;
44248;SDS011;29923;48.718;9.272;2023-01-04T00:33:45;9.77;;;6.80;;
44248;SDS011;29923;48.718;9.272;2023-01-04T00:36:11;12.60;;;7.00;;
44248;SDS011;29923;48.718;9.272;2023-01-04T00:38:38;13.70;;;6.43;;
44248;SDS011;29923;48.718;9.272;2023-01-04T00:41:04;14.68;;;6.25;;
44248;SDS011;29923;48.718;9.272;2023-01-04T00:43:31;12.48;;;7.00;;
44248;SDS011;29923;48.718;9.272;2023-01-04T00:45:56;11.82;;;6.93;;
44248;SDS011;29923;48.718;9.272;2023-01-04T00:48:22;10.18;;;6.43;;
44248;SDS011;29923;48.718;9.272;2023-01-04T00:50:47;13.02;;;7.13;;
44248;SDS011;29923;48.718;9.272;2023-01-04T00:53:14;14.05;;;6.60;;
44248;SDS011;29923;48.718;9.272;2023-01-04T00:55:41;12.50;;;7.25;;
44248;SDS011;29923;48.718;9.272;2023-01-04T00:58:06;11.57;;;6.97;;
44248;SDS011;29923;48.718;9.272;2023-01-04T01:00:32;10.82;;;7.03;;
44248;SDS011;29923;48.718;9.272;2023-01-04T01:03:00;12.38;;;7.70;;
44248;SDS011;29923;48.718;9.272;2023-01-04T01:05:26;10.45;;;7.70;;
44248;SDS011;29923;48.718;9.272;2023-01-04T01:07:51;11.48;;;7.70;;
44248;SDS011;29923;48.718;9.272;2023-01-04T01:10:17;9.73;;;6.90;;
44248;SDS011;29923;48.718;9.272;2023-01-04T01:12:42;11.55;;;6.82;;
44248;SDS011;29923;48.718;9.272;2023-01-04T01:15:08;10.68;;;6.93;;
44248;SDS011;29923;48.718;9.272;2023-01-04T01:17:33;12.77;;;8.25;;
44248;SDS011;29923;48.718;9.272;2023-01-04T01:20:00;13.43;;;8.32;;
44248;SDS011;29923;48.718;9.272;2023-01-04T01:22:25;12.30;;;7.47;;
44248;SDS011;29923;48.718;9.272;2023-01-04T01:24:51;12.80;;;8.20;;
44248;SDS011;29923;48.718;9.272;2023-01-04T01:27:16;12.38;;;6.85;;
44248;SDS011;29923;48.718;9.272;2023-01-04T01:29:42;10.40;;;6.75;;
44248;SDS011;29923;48.718;9.272;2023-01-04T01:32:07;11.30;;;7.53;;
44248;SDS011;29923;48.718;9.272;2023-01-04T01:34:33;14.65;;;8.60;;
44248;SDS011;29923;48.718;9.272;2023-01-04T01:36:58;14.32;;;8.85;;
44248;SDS011;29923;48.718;9.272;2023-01-04T01:39:24;13.18;;;8.30;;
44248;SDS011;29923;48.718;9.272;2023-01-04T01:41:49;15.77;;;9.57;;
44248;SDS011;29923;48.718;9.272;2023-01-04T01:47:10;11.50;;;7.77;;
44248;SDS011;29923;48.718;9.272;2023-01-04T01:49:38;13.35;;;7.97;;
44248;SDS011;29923;48.718;9.272;2023-01-04T01:52:04;12.90;;;8.73;;
44248;SDS011;29923;48.718;9.272;2023-01-04T01:54:33;14.32;;;8.40;;
44248;SDS011;29923;48.718;9.272;2023-01-04T01:57:00;12.00;;;8.10;;
44248;SDS011;29923;48.718;9.272;2023-01-04T01:59:29;11.38;;;8.07;;
44248;SDS011;29923;48.718;9.272;2023-01-04T02:01:56;15.13;;;8.88;;
44248;SDS011;29923;48.718;9.272;2023-01-04T02:04:21;18.55;;;9.13;;
44248;SDS011;29923;48.718;9.272;2023-01-04T02:06:48;13.15;;;8.63;;
44248;SDS011;29923;48.718;9.272;2023-01-04T02:09:16;13.77;;;8.32;;
44248;SDS011;29923;48.718;9.272;2023-01-04T02:11:42;10.73;;;7.63;;
44248;SDS011;29923;48.718;9.272;2023-01-04T02:14:07;14.85;;;9.80;;
44248;SDS011;29923;48.718;9.272;2023-01-04T02:19:39;12.50;;;8.48;;
44248;SDS011;29923;48.718;9.272;2023-01-04T02:22:33;12.70;;;8.82;;
44248;SDS011;29923;48.718;9.272;2023-01-04T02:28:17;10.73;;;7.72;;
44248;SDS011;29923;48.718;9.272;2023-01-04T02:33:54;12.50;;;9.05;;
44248;SDS011;29923;48.718;9.272;2023-01-04T02:36:25;12.48;;;8.85;;
44248;SDS011;29923;48.718;9.272;2023-01-04T02:42:11;13.55;;;8.73;;
44248;SDS011;29923;48.718;9.272;2023-01-04T02:44:47;13.70;;;8.48;;
44248;SDS011;29923;48.718;9.272;2023-01-04T02:47:27;19.33;;;9.02;;
44248;SDS011;29923;48.718;9.272;2023-01-04T02:50:15;13.32;;;8.52;;
44248;SDS011;29923;48.718;9.272;2023-01-04T02:52:54;12.93;;;9.13;;
44248;SDS011;29923;48.718;9.272;2023-01-04T02:55:20;13.75;;;8.68;;
44248;SDS011;29923;48.718;9.272;2023-01-04T02:57:55;14.73;;;9.10;;
44248;SDS011;29923;48.718;9.272;2023-01-04T03:00:37;14.30;;;9.50;;
44248;SDS011;29923;48.718;9.272;2023-01-04T03:04:00;14.40;;;8.63;;
44248;SDS011;29923;48.718;9.272;2023-01-04T03:07:01;13.02;;;8.18;;
44248;SDS011;29923;48.718;9.272;2023-01-04T03:09:33;12.95;;;9.32;;
44248;SDS011;29923;48.718;9.272;2023-01-04T03:12:01;18.40;;;8.45;;
44248;SDS011;29923;48.718;9.272;2023-01-04T03:14:51;24.40;;;12.35;;
44248;SDS011;29923;48.718;9.272;2023-01-04T03:17:24;15.60;;;9.80;;
44248;SDS011;29923;48.718;9.272;2023-01-04T03:19:51;28.05;;;14.50;;
44248;SDS011;29923;48.718;9.272;2023-01-04T03:22:29;16.45;;;8.75;;
44248;SDS011;29923;48.718;9.272;2023-01-04T03:25:21;14.82;;;8.95;;
44248;SDS011;29923;48.718;9.272;2023-01-04T03:28:09;16.70;;;9.98;;
44248;SDS011;29923;48.718;9.272;2023-01-04T03:31:05;15.05;;;9.32;;
44248;SDS011;29923;48.718;9.272;2023-01-04T03:33:53;18.20;;;9.65;;
44248;SDS011;29923;48.718;9.272;2023-01-04T03:39:12;18.00;;;11.07;;
44248;SDS011;29923;48.718;9.272;2023-01-04T03:42:09;16.02;;;9.65;;
44248;SDS011;29923;48.718;9.272;2023-01-04T03:45:02;14.98;;;8.88;;
44248;SDS011;29923;48.718;9.272;2023-01-04T03:47:58;13.55;;;8.73;;
44248;SDS011;29923;48.718;9.272;2023-01-04T03:50:47;17.65;;;9.40;;
44248;SDS011;29923;48.718;9.272;2023-01-04T03:53:17;14.63;;;9.25;;
44248;SDS011;29923;48.718;9.272;2023-01-04T03:55:43;16.75;;;8.98;;
44248;SDS011;29923;48.718;9.272;2023-01-04T03:58:09;15.45;;;9.20;;
44248;SDS011;29923;48.718;9.272;2023-01-04T04:00:35;14.73;;;8.85;;
44248;SDS011;29923;48.718;9.272;2023-01-04T04:03:00;15.27;;;9.52;;
44248;SDS011;29923;48.718;9.272;2023-01-04T04:05:34;12.70;;;8.18;;
44248;SDS011;29923;48.718;9.272;2023-01-04T04:08:20;11.50;;;7.93;;
44248;SDS011;29923;48.718;9.272;2023-01-04T04:10:56;14.25;;;8.13;;
44248;SDS011;29923;48.718;9.272;2023-01-04T04:13:42;11.23;;;7.82;;
44248;SDS011;29923;48.718;9.272;2023-01-04T04:16:08;14.48;;;9.32;;
44248;SDS011;29923;48.718;9.272;2023-01-04T04:18:33;12.85;;;8.27;;
44248;SDS011;29923;48.718;9.272;2023-01-04T04:20:59;14.27;;;7.95;;
44248;SDS011;29923;48.718;9.272;2023-01-04T04:23:24;12.55;;;8.10;;
44248;SDS011;29923;48.718;9.272;2023-01-04T04:25:49;12.57;;;8.05;;
44248;SDS011;29923;48.718;9.272;2023-01-04T04:28:15;15.35;;;8.43;;
44248;SDS011;29923;48.718;9.272;2023-01-04T04:30:40;12.60;;;7.90;;
44248;SDS011;29923;48.718;9.272;2023-01-04T04:33:05;13.07;;;8.52;;
44248;SDS011;29923;48.718;9.272;2023-01-04T04:35:31;12.98;;;7.63;;
44248;SDS011;29923;48.718;9.272;2023-01-04T04:37:56;12.70;;;8.20;;
44248;SDS011;29923;48.718;9.272;2023-01-04T04:40:21;15.05;;;8.13;;
44248;SDS011;29923;48.718;9.272;2023-01-04T04:43:06;10.13;;;7.82;;
44248;SDS011;29923;48.718;9.272;2023-01-04T04:45:32;10.35;;;6.85;;
44248;SDS011;29923;48.718;9.272;2023-01-04T04:47:57;10.57;;;7.35;;
44248;SDS011;29923;48.718;9.272;2023-01-04T04:50:22;10.63;;;6.38;;
44248;SDS011;29923;48.718;9.272;2023-01-04T04:52:48;9.48;;;6.60;;
44248;SDS011;29923;48.718;9.272;2023-01-04T04:55:13;11.20;;;7.28;;
44248;SDS011;29923;48.718;9.272;2023-01-04T04:57:38;12.50;;;7.88;;
44248;SDS011;29923;48.718;9.272;2023-01-04T05:00:04;16.40;;;8.32;;
44248;SDS011;29923;48.718;9.272;2023-01-04T05:02:31;15.43;;;10.20;;
44248;SDS011;29923;48.718;9.272;2023-01-04T05:04:56;14.93;;;9.23;;
44248;SDS011;29923;48.718;9.272;2023-01-04T05:07:21;16.50;;;8.45;;
44248;SDS011;29923;48.718;9.272;2023-01-04T05:09:47;12.57;;;8.32;;
44248;SDS011;29923;48.718;9.272;2023-01-04T05:12:12;11.80;;;7.75;;
44248;SDS011;29923;48.718;9.272;2023-01-04T05:14:58;12.52;;;8.55;;
44248;SDS011;29923;48.718;9.272;2023-01-04T05:17:23;14.85;;;7.68;;
44248;SDS011;29923;48.718;9.272;2023-01-04T05:19:48;15.05;;;8.88;;
44248;SDS011;29923;48.718;9.272;2023-01-04T05:22:13;17.35;;;7.28;;
44248;SDS011;29923;48.718;9.272;2023-01-04T05:24:39;12.63;;;8.38;;
44248;SDS011;29923;48.718;9.272;2023-01-04T05:27:04;15.45;;;9.45;;
44248;SDS011;29923;48.718;9.272;2023-01-04T05:29:29;14.00;;;7.47;;
44248;SDS011;29923;48.718;9.272;2023-01-04T05:32:13;22.13;;;12.30;;
44248;SDS011;29923;48.718;9.272;2023-01-04T05:34:38;12.82;;;7.38;;
44248;SDS011;29923;48.718;9.272;2023-01-04T05:37:04;9.35;;;6.70;;
44248;SDS011;29923;48.718;9.272;2023-01-04T05:39:29;8.85;;;6.55;;
44248;SDS011;29923;48.718;9.272;2023-01-04T05:41:55;9.40;;;6.57;;
44248;SDS011;29923;48.718;9.272;2023-01-04T05:47:04;12.23;;;6.60;;
44248;SDS011;29923;48.718;9.272;2023-01-04T05:49:29;12.73;;;6.93;;
44248;SDS011;29923;48.718;9.272;2023-01-04T05:51:54;10.55;;;6.60;;
44248;SDS011;29923;48.718;9.272;2023-01-04T05:54:20;10.85;;;6.68;;
44248;SDS011;29923;48.718;9.272;2023-01-04T05:56:45;14.55;;;7.35;;
44248;SDS011;29923;48.718;9.272;2023-01-04T05:59:10;9.85;;;6.72;;
44248;SDS011;29923;48.718;9.272;2023-01-04T06:01:36;12.13;;;7.28;;
44248;SDS011;29923;48.718;9.272;2023-01-04T06:04:01;9.88;;;6.65;;
44248;SDS011;29923;48.718;9.272;2023-01-04T06:06:26;10.80;;;6.40;;
44248;SDS011;29923;48.718;9.272;2023-01-04T06:08:52;10.68;;;6.47;;
44248;SDS011;29923;48.718;9.272;2023-01-04T06:11:17;11.10;;;6.80;;
44248;SDS011;29923;48.718;9.272;2023-01-04T06:13:42;7.75;;;5.72;;
44248;SDS011;29923;48.718;9.272;2023-01-04T06:16:08;8.52;;;6.20;;
44248;SDS011;29923;48.718;9.272;2023-01-04T06:18:33;9.57;;;6.53;;
44248;SDS011;29923;48.718;9.272;2023-01-04T06:20:58;16.73;;;7.22;;
44248;SDS011;29923;48.718;9.272;2023-01-04T06:23:24;13.23;;;7.93;;
44248;SDS011;29923;48.718;9.272;2023-01-04T06:25:49;20.45;;;8.45;;
44248;SDS011;29923;48.718;9.272;2023-01-04T06:28:14;10.75;;;6.93;;
44248;SDS011;29923;48.718;9.272;2023-01-04T06:30:40;17.08;;;6.25;;
44248;SDS011;29923;48.718;9.272;2023-01-04T06:33:05;10.57;;;7.03;;
44248;SDS011;29923;48.718;9.272;2023-01-04T06:35:30;10.93;;;7.18;;
44248;SDS011;29923;48.718;9.272;2023-01-04T06:37:56;10.68;;;7.05;;
44248;SDS011;29923;48.718;9.272;2023-01-04T06:40:21;12.02;;;6.05;;
44248;SDS011;29923;48.718;9.272;2023-01-04T06:42:46;11.82;;;6.93;;
44248;SDS011;29923;48.718;9.272;2023-01-04T06:45:13;9.93;;;6.65;;
44248;SDS011;29923;48.718;9.272;2023-01-04T06:47:39;9.65;;;5.78;;
44248;SDS011;29923;48.718;9.272;2023-01-04T06:50:04;8.23;;;5.47;;
44248;SDS011;29923;48.718;9.272;2023-01-04T06:52:30;9.52;;;5.90;;
44248;SDS011;29923;48.718;9.272;2023-01-04T06:54:55;9.43;;;6.72;;
44248;SDS011;29923;48.718;9.272;2023-01-04T06:57:21;9.70;;;6.85;;
44248;SDS011;29923;48.718;9.272;2023-01-04T06:59:46;10.30;;;6.45;;
44248;SDS011;29923;48.718;9.272;2023-01-04T07:02:15;13.07;;;7.15;;
44248;SDS011;29923;48.718;9.272;2023-01-04T07:04:41;11.18;;;6.28;;
44248;SDS011;29923;48.718;9.272;2023-01-04T07:07:06;12.30;;;6.53;;
44248;SDS011;29923;48.718;9.272;2023-01-04T07:09:32;12.40;;;6.32;;
44248;SDS011;29923;48.718;9.272;2023-01-04T07:11:57;10.07;;;6.20;;
44248;SDS011;29923;48.718;9.272;2023-01-04T07:14:23;12.00;;;6.88;;
44248;SDS011;29923;48.718;9.272;2023-01-04T07:16:48;8.10;;;6.25;;
44248;SDS011;29923;48.718;9.272;2023-01-04T07:19:13;11.35;;;7.05;;
44248;SDS011;29923;48.718;9.272;2023-01-04T07:21:39;10.73;;;7.03;;
44248;SDS011;29923;48.718;9.272;2023-01-04T07:24:05;10.55;;;6.43;;
44248;SDS011;29923;48.718;9.272;2023-01-04T07:26:30;9.95;;;5.97;;
44248;SDS011;29923;48.718;9.272;2023-01-04T07:28:55;8.20;;;5.85;;
44248;SDS011;29923;48.718;9.272;2023-01-04T07:31:39;10.43;;;6.40;;
44248;SDS011;29923;48.718;9.272;2023-01-04T07:34:05;11.70;;;8.00;;
44248;SDS011;29923;48.718;9.272;2023-01-04T07:36:31;9.55;;;5.82;;
44248;SDS011;29923;48.718;9.272;2023-01-04T07:38:57;10.05;;;6.55;;
44248;SDS011;29923;48.718;9.272;2023-01-04T07:41:24;8.05;;;5.60;;
44248;SDS011;29923;48.718;9.272;2023-01-04T07:43:49;9.07;;;6.18;;
44248;SDS011;29923;48.718;9.272;2023-01-04T07:46:14;7.60;;;5.18;;
44248;SDS011;29923;48.718;9.272;2023-01-04T07:48:40;6.28;;;4.30;;
44248;SDS011;29923;48.718;9.272;2023-01-04T07:51:05;5.65;;;4.22;;
44248;SDS011;29923;48.718;9.272;2023-01-04T07:53:31;11.02;;;6.22;;
44248;SDS011;29923;48.718;9.272;2023-01-04T07:55:57;11.13;;;5.38;;
44248;SDS011;29923;48.718;9.272;2023-01-04T07:58:23;7.78;;;4.70;;
44248;SDS011;29923;48.718;9.272;2023-01-04T08:00:48;9.52;;;4.80;;
44248;SDS011;29923;48.718;9.272;2023-01-04T08:03:14;7.50;;;4.75;;
44248;SDS011;29923;48.718;9.272;2023-01-04T08:05:39;11.38;;;5.72;;
44248;SDS011;29923;48.718;9.272;2023-01-04T08:08:06;9.30;;;6.22;;
44248;SDS011;29923;48.718;9.272;2023-01-04T08:10:31;9.35;;;6.55;;
44248;SDS011;29923;48.718;9.272;2023-01-04T08:12:57;9.35;;;5.95;;
44248;SDS011;29923;48.718;9.272;2023-01-04T08:15:24;9.20;;;5.63;;
44248;SDS011;29923;48.718;9.272;2023-01-04T08:17:50;10.55;;;5.63;;
44248;SDS011;29923;48.718;9.272;2023-01-04T08:20:16;9.23;;;5.43;;
44248;SDS011;29923;48.718;9.272;2023-01-04T08:22:41;8.25;;;5.10;;
44248;SDS011;29923;48.718;9.272;2023-01-04T08:25:06;8.57;;;4.90;;
44248;SDS011;29923;48.718;9.272;2023-01-04T08:27:32;9.38;;;4.40;;
44248;SDS011;29923;48.718;9.272;2023-01-04T08:29:58;5.10;;;3.70;;
44248;SDS011;29923;48.718;9.272;2023-01-04T08:32:23;7.55;;;4.10;;
44248;SDS011;29923;48.718;9.272;2023-01-04T08:34:48;7.18;;;3.70;;
44248;SDS011;29923;48.718;9.272;2023-01-04T08:37:14;11.52;;;4.03;;
44248;SDS011;29923;48.718;9.272;2023-01-04T08:39:39;6.57;;;3.30;;
44248;SDS011;29923;48.718;9.272;2023-01-04T08:42:04;31.75;;;20.20;;
44248;SDS011;29923;48.718;9.272;2023-01-04T08:44:30;7.70;;;4.85;;
44248;SDS011;29923;48.718;9.272;2023-01-04T08:46:55;7.50;;;2.95;;
44248;SDS011;29923;48.718;9.272;2023-01-04T08:49:21;9.23;;;3.72;;
44248;SDS011;29923;48.718;9.272;2023-01-04T08:51:46;5.55;;;3.08;;
44248;SDS011;29923;48.718;9.272;2023-01-04T08:54:12;5.60;;;3.28;;
44248;SDS011;29923;48.718;9.272;2023-01-04T08:56:38;8.82;;;3.03;;
44248;SDS011;29923;48.718;9.272;2023-01-04T08:59:03;4.97;;;2.78;;
44248;SDS011;29923;48.718;9.272;2023-01-04T09:01:30;4.13;;;2.00;;
44248;SDS011;29923;48.718;9.272;2023-01-04T09:03:58;3.53;;;2.47;;
44248;SDS011;29923;48.718;9.272;2023-01-04T09:06:24;4.70;;;2.08;;
44248;SDS011;29923;48.718;9.272;2023-01-04T09:08:49;3.72;;;2.45;;
44248;SDS011;29923;48.718;9.272;2023-01-04T09:11:17;3.88;;;2.00;;
44248;SDS011;29923;48.718;9.272;2023-01-04T09:13:46;4.43;;;2.10;;
44248;SDS011;29923;48.718;9.272;2023-01-04T09:16:16;5.90;;;1.40;;
44248;SDS011;29923;48.718;9.272;2023-01-04T09:18:42;5.53;;;2.10;;
44248;SDS011;29923;48.718;9.272;2023-01-04T09:21:09;4.78;;;1.70;;
44248;SDS011;29923;48.718;9.272;2023-01-04T09:23:36;7.18;;;1.67;;
44248;SDS011;29923;48.718;9.272;2023-01-04T09:26:06;3.38;;;1.70;;
44248;SDS011;29923;48.718;9.272;2023-01-04T09:28:32;9.68;;;2.25;;
44248;SDS011;29923;48.718;9.272;2023-01-04T09:30:58;6.75;;;1.48;;
44248;SDS011;29923;48.718;9.272;2023-01-04T09:33:23;2.33;;;1.60;;
44248;SDS011;29923;48.718;9.272;2023-01-04T09:35:49;8.68;;;6.25;;
44248;SDS011;29923;48.718;9.272;2023-01-04T09:38:14;4.65;;;1.67;;
44248;SDS011;29923;48.718;9.272;2023-01-04T09:40:52;4.00;;;1.20;;
44248;SDS011;29923;48.718;9.272;2023-01-04T09:43:20;5.75;;;1.50;;
44248;SDS011;29923;48.718;9.272;2023-01-04T09:45:46;4.13;;;1.45;;
44248;SDS011;29923;48.718;9.272;2023-01-04T09:48:14;3.80;;;1.33;;
44248;SDS011;29923;48.718;9.272;2023-01-04T09:50:48;3.03;;;1.15;;
44248;SDS011;29923;48.718;9.272;2023-01-04T09:53:32;3.60;;;1.38;;
44248;SDS011;29923;48.718;9.272;2023-01-04T09:58:54;1.85;;;1.05;;
44248;SDS011;29923;48.718;9.272;2023-01-04T10:01:22;5.63;;;1.45;;
44248;SDS011;29923;48.718;9.272;2023-01-04T10:03:59;6.57;;;1.20;;
44248;SDS011;29923;48.718;9.272;2023-01-04T10:06:30;4.13;;;1.35;;
44248;SDS011;29923;48.718;9.272;2023-01-04T10:08:57;2.15;;;1.02;;
44248;SDS011;29923;48.718;9.272;2023-01-04T10:25:21;4.07;;;1.00;;
44248;SDS011;29923;48.718;9.272;2023-01-04T10:27:54;4.35;;;1.00;;
44248;SDS011;29923;48.718;9.272;2023-01-04T10:30:42;5.68;;;1.77;;
44248;SDS011;29923;48.718;9.272;2023-01-04T10:34:01;2.78;;;0.60;;
44248;SDS011;29923;48.718;9.272;2023-01-04T10:36:21;2.78;;;0.80;;
44248;SDS011;29923;48.718;9.272;2023-01-04T10:38:57;2.30;;;0.88;;
44248;SDS011;29923;48.718;9.272;2023-01-04T10:41:23;0.73;;;0.60;;
44248;SDS011;29923;48.718;9.272;2023-01-04T10:46:46;1.17;;;0.90;;
44248;SDS011;29923;48.718;9.272;2023-01-04T10:49:26;3.15;;;0.80;;
44248;SDS011;29923;48.718;9.272;2023-01-04T10:51:58;1.98;;;0.80;;
44248;SDS011;29923;48.718;9.272;2023-01-04T10:54:39;1.13;;;0.70;;
44248;SDS011;29923;48.718;9.272;2023-01-04T11:12:47;1.55;;;0.75;;
44248;SDS011;29923;48.718;9.272;2023-01-04T11:15:13;1.25;;;0.50;;
44248;SDS011;29923;48.718;9.272;2023-01-04T11:17:38;2.88;;;0.77;;
44248;SDS011;29923;48.718;9.272;2023-01-04T11:20:06;2.13;;;0.50;;
44248;SDS011;29923;48.718;9.272;2023-01-04T11:22:42;1.48;;;0.68;;
44248;SDS011;29923;48.718;9.272;2023-01-04T11:25:14;1.02;;;0.70;;
44248;SDS011;29923;48.718;9.272;2023-01-04T11:30:28;1.20;;;0.50;;
44248;SDS011;29923;48.718;9.272;2023-01-04T11:33:07;0.45;;;0.45;;
44248;SDS011;29923;48.718;9.272;2023-01-04T11:38:14;3.90;;;1.20;;
44248;SDS011;29923;48.718;9.272;2023-01-04T11:40:41;1.50;;;0.63;;
44248;SDS011;29923;48.718;9.272;2023-01-04T11:43:19;2.00;;;0.70;;
44248;SDS011;29923;48.718;9.272;2023-01-04T11:51:04;2.25;;;0.80;;
44248;SDS011;29923;48.718;9.272;2023-01-04T11:53:31;3.95;;;1.38;;
44248;SDS011;29923;48.718;9.272;2023-01-04T11:56:07;5.90;;;1.00;;
44248;SDS011;29923;48.718;9.272;2023-01-04T11:58:35;4.82;;;3.80;;
44248;SDS011;29923;48.718;9.272;2023-01-04T12:01:00;1.80;;;0.50;;
44248;SDS011;29923;48.718;9.272;2023-01-04T12:03:30;1.20;;;0.77;;
44248;SDS011;29923;48.718;9.272;2023-01-04T12:05:58;2.15;;;0.90;;
44248;SDS011;29923;48.718;9.272;2023-01-04T12:08:31;3.05;;;0.68;;
44248;SDS011;29923;48.718;9.272;2023-01-04T12:10:58;0.93;;;0.70;;
44248;SDS011;29923;48.718;9.272;2023-01-04T12:13:24;3.83;;;1.73;;
44248;SDS011;29923;48.718;9.272;2023-01-04T12:18:25;1.77;;;0.70;;
44248;SDS011;29923;48.718;9.272;2023-01-04T12:20:53;2.00;;;0.82;;
44248;SDS011;29923;48.718;9.272;2023-01-04T12:23:20;1.27;;;0.68;;
44248;SDS011;29923;48.718;9.272;2023-01-04T12:25:49;1.38;;;0.65;;
44248;SDS011;29923;48.718;9.272;2023-01-04T12:28:32;1.27;;;0.70;;
44248;SDS011;29923;48.718;9.272;2023-01-04T12:31:25;3.42;;;0.77;;
44248;SDS011;29923;48.718;9.272;2023-01-04T12:33:45;4.45;;;1.00;;
44248;SDS011;29923;48.718;9.272;2023-01-04T12:36:11;3.58;;;0.70;;
44248;SDS011;29923;48.718;9.272;2023-01-04T12:41:16;3.60;;;0.90;;
44248;SDS011;29923;48.718;9.272;2023-01-04T12:43:49;4.05;;;0.88;;
44248;SDS011;29923;48.718;9.272;2023-01-04T13:00:02;1.75;;;0.90;;
44248;SDS011;29923;48.718;9.272;2023-01-04T13:02:39;3.67;;;1.05;;
44248;SDS011;29923;48.718;9.272;2023-01-04T13:10:31;4.70;;;1.05;;
44248;SDS011;29923;48.718;9.272;2023-01-04T13:21:09;3.85;;;1.10;;
44248;SDS011;29923;48.718;9.272;2023-01-04T13:23:40;3.33;;;0.90;;
44248;SDS011;29923;48.718;9.272;2023-01-04T13:31:47;1.00;;;0.70;;
44248;SDS011;29923;48.718;9.272;2023-01-04T13:36:42;2.65;;;0.80;;
44248;SDS011;29923;48.718;9.272;2023-01-04T13:39:09;4.53;;;0.95;;
44248;SDS011;29923;48.718;9.272;2023-01-04T13:41:35;2.22;;;0.90;;
44248;SDS011;29923;48.718;9.272;2023-01-04T13:46:29;2.83;;;0.90;;
44248;SDS011;29923;48.718;9.272;2023-01-04T13:48:57;2.05;;;0.82;;
44248;SDS011;29923;48.718;9.272;2023-01-04T13:51:25;2.05;;;1.10;;
44248;SDS011;29923;48.718;9.272;2023-01-04T13:53:59;1.65;;;0.90;;
44248;SDS011;29923;48.718;9.272;2023-01-04T13:56:26;2.17;;;0.90;;
44248;SDS011;29923;48.718;9.272;2023-01-04T13:58:56;1.83;;;1.02;;
44248;SDS011;29923;48.718;9.272;2023-01-04T14:04:27;1.65;;;1.20;;
44248;SDS011;29923;48.718;9.272;2023-01-04T14:06:52;1.40;;;0.80;;
44248;SDS011;29923;48.718;9.272;2023-01-04T14:09:19;3.33;;;1.00;;
44248;SDS011;29923;48.718;9.272;2023-01-04T14:11:47;3.35;;;0.73;;
44248;SDS011;29923;48.718;9.272;2023-01-04T14:24:46;1.60;;;0.60;;
44248;SDS011;29923;48.718;9.272;2023-01-04T14:27:27;2.15;;;0.90;;
44248;SDS011;29923;48.718;9.272;2023-01-04T14:29:57;2.28;;;0.82;;
44248;SDS011;29923;48.718;9.272;2023-01-04T14:32:22;1.40;;;0.70;;
44248;SDS011;29923;48.718;9.272;2023-01-04T14:34:48;0.30;;;0.30;;
44248;SDS011;29923;48.718;9.272;2023-01-04T14:37:14;2.58;;;0.50;;
44248;SDS011;29923;48.718;9.272;2023-01-04T14:39:39;1.40;;;0.43;;
44248;SDS011;29923;48.718;9.272;2023-01-04T14:42:13;1.13;;;0.45;;
44248;SDS011;29923;48.718;9.272;2023-01-04T14:44:48;0.90;;;0.50;;
44248;SDS011;29923;48.718;9.272;2023-01-04T14:47:13;1.30;;;0.45;;
44248;SDS011;29923;48.718;9.272;2023-01-04T14:49:39;2.38;;;1.10;;
44248;SDS011;29923;48.718;9.272;2023-01-04T14:52:16;1.52;;;0.50;;
44248;SDS011;29923;48.718;9.272;2023-01-04T14:54:44;0.63;;;0.43;;
44248;SDS011;29923;48.718;9.272;2023-01-04T14:57:10;1.27;;;0.50;;
44248;SDS011;29923;48.718;9.272;2023-01-04T14:59:35;2.00;;;0.90;;
44248;SDS011;29923;48.718;9.272;2023-01-04T15:02:01;5.07;;;0.82;;
44248;SDS011;29923;48.718;9.272;2023-01-04T15:04:26;2.00;;;0.63;;
44248;SDS011;29923;48.718;9.272;2023-01-04T15:06:57;2.63;;;0.80;;
44248;SDS011;29923;48.718;9.272;2023-01-04T15:09:23;3.00;;;1.00;;
44248;SDS011;29923;48.718;9.272;2023-01-04T15:11:49;0.85;;;0.68;;
44248;SDS011;29923;48.718;9.272;2023-01-04T15:14:14;1.58;;;0.70;;
44248;SDS011;29923;48.718;9.272;2023-01-04T15:16:40;0.50;;;0.40;;
44248;SDS011;29923;48.718;9.272;2023-01-04T15:19:05;1.17;;;0.50;;
44248;SDS011;29923;48.718;9.272;2023-01-04T15:21:30;3.35;;;0.50;;
44248;SDS011;29923;48.718;9.272;2023-01-04T15:23:56;1.67;;;0.52;;
44248;SDS011;29923;48.718;9.272;2023-01-04T15:26:21;3.38;;;0.50;;
44248;SDS011;29923;48.718;9.272;2023-01-04T15:28:47;0.95;;;0.50;;
44248;SDS011;29923;48.718;9.272;2023-01-04T15:31:12;3.33;;;0.63;;
44248;SDS011;29923;48.718;9.272;2023-01-04T15:33:38;1.00;;;0.95;;
44248;SDS011;29923;48.718;9.272;2023-01-04T15:36:05;0.43;;;0.43;;
44248;SDS011;29923;48.718;9.272;2023-01-04T15:38:40;0.38;;;0.30;;
44248;SDS011;29923;48.718;9.272;2023-01-04T15:41:07;2.97;;;0.65;;
44248;SDS011;29923;48.718;9.272;2023-01-04T15:43:35;1.05;;;0.70;;
44248;SDS011;29923;48.718;9.272;2023-01-04T15:46:05;0.90;;;0.52;;
44248;SDS011;29923;48.718;9.272;2023-01-04T15:48:32;0.73;;;0.50;;
44248;SDS011;29923;48.718;9.272;2023-01-04T15:51:00;1.83;;;0.60;;
44248;SDS011;29923;48.718;9.272;2023-01-04T15:53:27;1.25;;;0.77;;
44248;SDS011;29923;48.718;9.272;2023-01-04T15:55:53;0.98;;;0.60;;
44248;SDS011;29923;48.718;9.272;2023-01-04T15:58:18;1.23;;;0.70;;
44248;SDS011;29923;48.718;9.272;2023-01-04T16:00:44;1.85;;;0.80;;
44248;SDS011;29923;48.718;9.272;2023-01-04T16:03:10;1.75;;;0.63;;
44248;SDS011;29923;48.718;9.272;2023-01-04T16:05:35;1.70;;;0.73;;
44248;SDS011;29923;48.718;9.272;2023-01-04T16:08:01;3.60;;;0.80;;
44248;SDS011;29923;48.718;9.272;2023-01-04T16:10:27;3.75;;;0.75;;
44248;SDS011;29923;48.718;9.272;2023-01-04T16:12:52;2.35;;;0.57;;
44248;SDS011;29923;48.718;9.272;2023-01-04T16:15:18;1.13;;;0.65;;
44248;SDS011;29923;48.718;9.272;2023-01-04T16:17:45;1.75;;;0.60;;
44248;SDS011;29923;48.718;9.272;2023-01-04T16:20:11;1.20;;;0.60;;
44248;SDS011;29923;48.718;9.272;2023-01-04T16:22:38;2.65;;;0.63;;
44248;SDS011;29923;48.718;9.272;2023-01-04T16:25:04;1.00;;;0.50;;
44248;SDS011;29923;48.718;9.272;2023-01-04T16:27:31;0.85;;;0.50;;
44248;SDS011;29923;48.718;9.272;2023-01-04T16:29:57;1.50;;;0.50;;
44248;SDS011;29923;48.718;9.272;2023-01-04T16:32:23;6.60;;;0.50;;
44248;SDS011;29923;48.718;9.272;2023-01-04T16:34:49;2.65;;;0.45;;
44248;SDS011;29923;48.718;9.272;2023-01-04T16:37:15;2.05;;;0.60;;
44248;SDS011;29923;48.718;9.272;2023-01-04T16:39:40;1.52;;;0.60;;
44248;SDS011;29923;48.718;9.272;2023-01-04T16:42:05;4.07;;;0.47;;
44248;SDS011;29923;48.718;9.272;2023-01-04T16:44:31;2.25;;;0.57;;
44248;SDS011;29923;48.718;9.272;2023-01-04T16:46:56;0.73;;;0.50;;
44248;SDS011;29923;48.718;9.272;2023-01-04T16:49:22;3.65;;;0.77;;
44248;SDS011;29923;48.718;9.272;2023-01-04T16:51:47;0.75;;;0.50;;
44248;SDS011;29923;48.718;9.272;2023-01-04T16:54:13;2.70;;;1.88;;